sensor_id;sensor_type;location;lat;lon;timestamp;temperature;humidity
32749;DHT22;19119;52.474;13.710;2023-05-09T00:02:09;8.90;99.90
32749;DHT22;19119;52.474;13.710;2023-05-09T00:04:35;9.00;99.90
32749;DHT22;19119;52.474;13.710;2023-05-09T00:07:00;9.00;99.90
32749;DHT22;19119;52.474;13.710;2023-05-09T00:09:26;9.00;99.90
32749;DHT22;19119;52.474;13.710;2023-05-09T00:11:52;9.00;99.90
32749;DHT22;19119;52.474;13.710;2023-05-09T00:14:17;9.00;99.90
32749;DHT22;19119;52.474;13.710;2023-05-09T00:16:44;9.00;99.90
32749;DHT22;19119;52.474;13.710;2023-05-09T00:19:09;9.00;99.90
32749;DHT22;19119;52.474;13.710;2023-05-09T00:21:35;8.90;99.90
32749;DHT22;19119;52.474;13.710;2023-05-09T00:24:01;9.00;99.90
32749;DHT22;19119;52.474;13.710;2023-05-09T00:26:27;8.90;99.90
32749;DHT22;19119;52.474;13.710;2023-05-09T00:28:52;8.90;99.90
32749;DHT22;19119;52.474;13.710;2023-05-09T00:31:19;8.90;99.90
32749;DHT22;19119;52.474;13.710;2023-05-09T00:33:45;9.00;99.90
32749;DHT22;19119;52.474;13.710;2023-05-09T00:36:10;8.80;99.90
32749;DHT22;19119;52.474;13.710;2023-05-09T00:38:36;8.90;99.90
32749;DHT22;19119;52.474;13.710;2023-05-09T00:41:01;8.90;99.90
32749;DHT22;19119;52.474;13.710;2023-05-09T00:43:27;8.90;99.90
32749;DHT22;19119;52.474;13.710;2023-05-09T00:45:53;8.80;99.90
32749;DHT22;19119;52.474;13.710;2023-05-09T00:48:18;8.80;99.90
32749;DHT22;19119;52.474;13.710;2023-05-09T00:50:44;8.80;99.90
32749;DHT22;19119;52.474;13.710;2023-05-09T00:53:11;8.80;99.90
32749;DHT22;19119;52.474;13.710;2023-05-09T00:55:37;8.80;99.90
32749;DHT22;19119;52.474;13.710;2023-05-09T00:58:03;8.70;99.90
32749;DHT22;19119;52.474;13.710;2023-05-09T01:00:28;8.60;99.90
32749;DHT22;19119;52.474;13.710;2023-05-09T01:02:55;8.60;99.90
32749;DHT22;19119;52.474;13.710;2023-05-09T01:05:25;8.60;99.90
32749;DHT22;19119;52.474;13.710;2023-05-09T01:08:00;8.60;99.90
32749;DHT22;19119;52.474;13.710;2023-05-09T01:10:47;8.60;99.90
32749;DHT22;19119;52.474;13.710;2023-05-09T01:16:05;8.60;99.90
32749;DHT22;19119;52.474;13.710;2023-05-09T01:18:39;8.60;99.90
32749;DHT22;19119;52.474;13.710;2023-05-09T01:21:10;8.60;99.90
32749;DHT22;19119;52.474;13.710;2023-05-09T01:24:19;8.50;99.90
32749;DHT22;19119;52.474;13.710;2023-05-09T01:29:33;8.60;99.90
32749;DHT22;19119;52.474;13.710;2023-05-09T01:32:03;8.60;99.90
32749;DHT22;19119;52.474;13.710;2023-05-09T01:34:31;8.50;99.90
32749;DHT22;19119;52.474;13.710;2023-05-09T01:36:59;8.60;99.90
32749;DHT22;19119;52.474;13.710;2023-05-09T01:39:27;8.50;99.90
32749;DHT22;19119;52.474;13.710;2023-05-09T01:41:56;8.60;99.90
32749;DHT22;19119;52.474;13.710;2023-05-09T01:44:25;8.60;99.90
32749;DHT22;19119;52.474;13.710;2023-05-09T01:46:55;8.50;99.90
32749;DHT22;19119;52.474;13.710;2023-05-09T01:49:21;8.50;99.90
32749;DHT22;19119;52.474;13.710;2023-05-09T01:51:49;8.50;99.90
32749;DHT22;19119;52.474;13.710;2023-05-09T01:54:16;8.50;99.90
32749;DHT22;19119;52.474;13.710;2023-05-09T01:56:42;8.50;99.90
32749;DHT22;19119;52.474;13.710;2023-05-09T01:59:10;8.60;99.90
32749;DHT22;19119;52.474;13.710;2023-05-09T02:01:41;8.60;99.90
32749;DHT22;19119;52.474;13.710;2023-05-09T02:04:07;8.60;99.90
32749;DHT22;19119;52.474;13.710;2023-05-09T02:06:33;8.50;99.90
32749;DHT22;19119;52.474;13.710;2023-05-09T02:09:00;8.50;99.90
32749;DHT22;19119;52.474;13.710;2023-05-09T02:11:26;8.50;99.90
32749;DHT22;19119;52.474;13.710;2023-05-09T02:13:52;8.50;99.90
32749;DHT22;19119;52.474;13.710;2023-05-09T02:16:17;8.40;99.90
32749;DHT22;19119;52.474;13.710;2023-05-09T02:18:43;8.40;99.90
32749;DHT22;19119;52.474;13.710;2023-05-09T02:21:08;8.40;99.90
32749;DHT22;19119;52.474;13.710;2023-05-09T02:23:34;8.40;99.90
32749;DHT22;19119;52.474;13.710;2023-05-09T02:26:00;8.20;99.90
32749;DHT22;19119;52.474;13.710;2023-05-09T02:28:27;8.30;99.90
32749;DHT22;19119;52.474;13.710;2023-05-09T02:30:54;8.30;99.90
32749;DHT22;19119;52.474;13.710;2023-05-09T02:33:21;8.20;99.90
32749;DHT22;19119;52.474;13.710;2023-05-09T02:35:48;8.30;99.90
32749;DHT22;19119;52.474;13.710;2023-05-09T02:38:14;8.20;99.90
32749;DHT22;19119;52.474;13.710;2023-05-09T02:40:42;8.20;99.90
32749;DHT22;19119;52.474;13.710;2023-05-09T02:43:09;8.20;99.90
32749;DHT22;19119;52.474;13.710;2023-05-09T02:45:34;8.10;99.90
32749;DHT22;19119;52.474;13.710;2023-05-09T02:48:00;8.10;99.90
32749;DHT22;19119;52.474;13.710;2023-05-09T02:50:26;8.00;99.90
32749;DHT22;19119;52.474;13.710;2023-05-09T02:52:51;8.00;99.90
32749;DHT22;19119;52.474;13.710;2023-05-09T02:55:17;8.00;99.90
32749;DHT22;19119;52.474;13.710;2023-05-09T02:57:42;7.90;99.90
32749;DHT22;19119;52.474;13.710;2023-05-09T03:00:08;7.80;99.90
32749;DHT22;19119;52.474;13.710;2023-05-09T03:02:38;7.80;99.90
32749;DHT22;19119;52.474;13.710;2023-05-09T03:05:04;7.60;99.90
32749;DHT22;19119;52.474;13.710;2023-05-09T03:07:30;7.40;99.90
32749;DHT22;19119;52.474;13.710;2023-05-09T03:09:55;7.30;99.90
32749;DHT22;19119;52.474;13.710;2023-05-09T03:12:21;7.20;99.90
32749;DHT22;19119;52.474;13.710;2023-05-09T03:14:46;7.10;99.90
32749;DHT22;19119;52.474;13.710;2023-05-09T03:17:12;7.00;99.90
32749;DHT22;19119;52.474;13.710;2023-05-09T03:19:41;6.90;99.90
32749;DHT22;19119;52.474;13.710;2023-05-09T03:22:07;6.80;99.90
32749;DHT22;19119;52.474;13.710;2023-05-09T03:24:33;6.70;99.90
32749;DHT22;19119;52.474;13.710;2023-05-09T03:26:59;6.70;99.90
32749;DHT22;19119;52.474;13.710;2023-05-09T03:29:24;6.60;99.90
32749;DHT22;19119;52.474;13.710;2023-05-09T03:31:50;6.50;99.90
32749;DHT22;19119;52.474;13.710;2023-05-09T03:34:16;6.50;99.90
32749;DHT22;19119;52.474;13.710;2023-05-09T03:36:42;6.50;99.90
32749;DHT22;19119;52.474;13.710;2023-05-09T03:39:08;6.40;99.90
32749;DHT22;19119;52.474;13.710;2023-05-09T03:41:34;6.40;99.90
32749;DHT22;19119;52.474;13.710;2023-05-09T03:44:01;6.40;99.90
32749;DHT22;19119;52.474;13.710;2023-05-09T03:46:27;6.30;99.90
32749;DHT22;19119;52.474;13.710;2023-05-09T03:48:52;6.20;99.90
32749;DHT22;19119;52.474;13.710;2023-05-09T03:51:18;6.20;99.90
32749;DHT22;19119;52.474;13.710;2023-05-09T03:53:46;6.10;99.90
32749;DHT22;19119;52.474;13.710;2023-05-09T03:56:13;6.10;99.90
32749;DHT22;19119;52.474;13.710;2023-05-09T03:58:38;6.10;99.90
32749;DHT22;19119;52.474;13.710;2023-05-09T04:01:04;6.20;99.90
32749;DHT22;19119;52.474;13.710;2023-05-09T04:03:30;6.20;99.90
32749;DHT22;19119;52.474;13.710;2023-05-09T04:05:56;6.20;99.90
32749;DHT22;19119;52.474;13.710;2023-05-09T04:08:22;6.20;99.90
32749;DHT22;19119;52.474;13.710;2023-05-09T04:10:48;6.30;99.90
32749;DHT22;19119;52.474;13.710;2023-05-09T04:13:14;6.30;99.90
32749;DHT22;19119;52.474;13.710;2023-05-09T04:15:40;6.20;99.90
32749;DHT22;19119;52.474;13.710;2023-05-09T04:18:06;6.30;99.90
32749;DHT22;19119;52.474;13.710;2023-05-09T04:20:32;6.30;99.90
32749;DHT22;19119;52.474;13.710;2023-05-09T04:22:58;6.40;99.90
32749;DHT22;19119;52.474;13.710;2023-05-09T04:25:23;6.50;99.90
32749;DHT22;19119;52.474;13.710;2023-05-09T04:27:49;6.60;99.90
32749;DHT22;19119;52.474;13.710;2023-05-09T04:30:15;6.80;99.90
32749;DHT22;19119;52.474;13.710;2023-05-09T04:32:40;7.00;99.90
32749;DHT22;19119;52.474;13.710;2023-05-09T04:35:10;7.20;99.90
32749;DHT22;19119;52.474;13.710;2023-05-09T04:37:36;7.40;99.90
32749;DHT22;19119;52.474;13.710;2023-05-09T04:40:02;7.50;99.90
32749;DHT22;19119;52.474;13.710;2023-05-09T04:42:28;7.70;99.90
32749;DHT22;19119;52.474;13.710;2023-05-09T04:44:57;8.00;99.90
32749;DHT22;19119;52.474;13.710;2023-05-09T04:47:23;8.40;99.90
32749;DHT22;19119;52.474;13.710;2023-05-09T04:49:48;8.70;99.90
32749;DHT22;19119;52.474;13.710;2023-05-09T04:52:14;9.10;99.90
32749;DHT22;19119;52.474;13.710;2023-05-09T04:54:39;9.50;99.90
32749;DHT22;19119;52.474;13.710;2023-05-09T04:57:05;9.80;99.90
32749;DHT22;19119;52.474;13.710;2023-05-09T04:59:31;10.20;99.90
32749;DHT22;19119;52.474;13.710;2023-05-09T05:01:56;10.50;99.90
32749;DHT22;19119;52.474;13.710;2023-05-09T05:04:22;10.80;99.90
32749;DHT22;19119;52.474;13.710;2023-05-09T05:06:48;11.30;99.90
32749;DHT22;19119;52.474;13.710;2023-05-09T05:09:13;11.30;99.60
32749;DHT22;19119;52.474;13.710;2023-05-09T05:11:39;11.40;99.60
32749;DHT22;19119;52.474;13.710;2023-05-09T05:14:04;11.50;99.50
32749;DHT22;19119;52.474;13.710;2023-05-09T05:16:30;11.80;99.70
32749;DHT22;19119;52.474;13.710;2023-05-09T05:18:55;12.10;99.20
32749;DHT22;19119;52.474;13.710;2023-05-09T05:21:21;12.30;99.10
32749;DHT22;19119;52.474;13.710;2023-05-09T05:23:46;12.80;98.20
32749;DHT22;19119;52.474;13.710;2023-05-09T05:26:12;12.80;98.00
32749;DHT22;19119;52.474;13.710;2023-05-09T05:28:38;13.10;97.90
32749;DHT22;19119;52.474;13.710;2023-05-09T05:31:03;13.60;98.50
32749;DHT22;19119;52.474;13.710;2023-05-09T05:33:29;13.80;97.50
32749;DHT22;19119;52.474;13.710;2023-05-09T05:35:54;13.80;97.40
32749;DHT22;19119;52.474;13.710;2023-05-09T05:38:20;13.80;96.90
32749;DHT22;19119;52.474;13.710;2023-05-09T05:40:45;14.20;97.00
32749;DHT22;19119;52.474;13.710;2023-05-09T05:43:11;14.10;96.80
32749;DHT22;19119;52.474;13.710;2023-05-09T05:45:36;14.00;96.10
32749;DHT22;19119;52.474;13.710;2023-05-09T05:48:02;13.90;96.50
32749;DHT22;19119;52.474;13.710;2023-05-09T05:50:28;13.80;96.40
32749;DHT22;19119;52.474;13.710;2023-05-09T05:52:53;13.60;96.70
32749;DHT22;19119;52.474;13.710;2023-05-09T05:55:19;13.80;97.00
32749;DHT22;19119;52.474;13.710;2023-05-09T05:57:44;13.80;96.40
32749;DHT22;19119;52.474;13.710;2023-05-09T06:00:12;13.90;96.00
32749;DHT22;19119;52.474;13.710;2023-05-09T06:02:41;13.90;95.90
32749;DHT22;19119;52.474;13.710;2023-05-09T06:05:09;13.80;96.00
32749;DHT22;19119;52.474;13.710;2023-05-09T06:07:35;13.90;96.50
32749;DHT22;19119;52.474;13.710;2023-05-09T06:10:00;13.60;95.90
32749;DHT22;19119;52.474;13.710;2023-05-09T06:12:25;13.60;96.40
32749;DHT22;19119;52.474;13.710;2023-05-09T06:14:51;13.50;95.80
32749;DHT22;19119;52.474;13.710;2023-05-09T06:17:17;13.60;96.10
32749;DHT22;19119;52.474;13.710;2023-05-09T06:19:42;13.80;95.60
32749;DHT22;19119;52.474;13.710;2023-05-09T06:22:08;14.00;96.10
32749;DHT22;19119;52.474;13.710;2023-05-09T06:24:33;14.20;96.50
32749;DHT22;19119;52.474;13.710;2023-05-09T06:26:59;14.10;95.80
32749;DHT22;19119;52.474;13.710;2023-05-09T06:29:25;14.00;95.50
32749;DHT22;19119;52.474;13.710;2023-05-09T06:31:50;14.00;95.40
32749;DHT22;19119;52.474;13.710;2023-05-09T06:34:16;13.80;95.30
32749;DHT22;19119;52.474;13.710;2023-05-09T06:36:41;13.70;95.50
32749;DHT22;19119;52.474;13.710;2023-05-09T06:39:07;13.60;95.30
32749;DHT22;19119;52.474;13.710;2023-05-09T06:41:32;13.50;95.40
32749;DHT22;19119;52.474;13.710;2023-05-09T06:43:58;13.70;95.40
32749;DHT22;19119;52.474;13.710;2023-05-09T06:46:24;13.60;95.40
32749;DHT22;19119;52.474;13.710;2023-05-09T06:48:49;13.80;96.20
32749;DHT22;19119;52.474;13.710;2023-05-09T06:51:15;14.30;95.60
32749;DHT22;19119;52.474;13.710;2023-05-09T06:53:40;14.50;95.20
32749;DHT22;19119;52.474;13.710;2023-05-09T06:56:06;14.30;94.80
32749;DHT22;19119;52.474;13.710;2023-05-09T06:58:31;14.30;95.00
32749;DHT22;19119;52.474;13.710;2023-05-09T07:00:57;14.50;94.70
32749;DHT22;19119;52.474;13.710;2023-05-09T07:03:23;14.80;95.30
32749;DHT22;19119;52.474;13.710;2023-05-09T07:05:48;14.90;94.60
32749;DHT22;19119;52.474;13.710;2023-05-09T07:08:14;15.10;94.50
32749;DHT22;19119;52.474;13.710;2023-05-09T07:10:39;15.40;94.40
32749;DHT22;19119;52.474;13.710;2023-05-09T07:13:05;15.50;93.90
32749;DHT22;19119;52.474;13.710;2023-05-09T07:15:30;15.50;94.10
32749;DHT22;19119;52.474;13.710;2023-05-09T07:17:56;15.50;93.80
32749;DHT22;19119;52.474;13.710;2023-05-09T07:20:22;15.20;93.30
32749;DHT22;19119;52.474;13.710;2023-05-09T07:22:47;15.00;93.10
32749;DHT22;19119;52.474;13.710;2023-05-09T07:25:13;15.00;93.30
32749;DHT22;19119;52.474;13.710;2023-05-09T07:27:38;15.10;93.40
32749;DHT22;19119;52.474;13.710;2023-05-09T07:30:05;15.20;93.20
32749;DHT22;19119;52.474;13.710;2023-05-09T07:32:31;15.30;93.40
32749;DHT22;19119;52.474;13.710;2023-05-09T07:34:57;15.50;93.10
32749;DHT22;19119;52.474;13.710;2023-05-09T07:37:23;15.60;93.50
32749;DHT22;19119;52.474;13.710;2023-05-09T07:39:48;15.70;92.70
32749;DHT22;19119;52.474;13.710;2023-05-09T07:42:14;15.70;92.50
32749;DHT22;19119;52.474;13.710;2023-05-09T07:44:40;16.00;92.90
32749;DHT22;19119;52.474;13.710;2023-05-09T07:47:06;16.30;93.20
32749;DHT22;19119;52.474;13.710;2023-05-09T07:49:33;16.60;92.90
32749;DHT22;19119;52.474;13.710;2023-05-09T07:51:59;16.70;92.80
32749;DHT22;19119;52.474;13.710;2023-05-09T07:54:25;16.20;91.40
32749;DHT22;19119;52.474;13.710;2023-05-09T07:56:51;16.20;91.70
32749;DHT22;19119;52.474;13.710;2023-05-09T07:59:16;16.00;92.10
32749;DHT22;19119;52.474;13.710;2023-05-09T08:01:42;16.40;92.50
32749;DHT22;19119;52.474;13.710;2023-05-09T08:04:08;16.10;91.60
32749;DHT22;19119;52.474;13.710;2023-05-09T08:06:34;16.40;91.90
32749;DHT22;19119;52.474;13.710;2023-05-09T08:09:00;16.30;91.40
32749;DHT22;19119;52.474;13.710;2023-05-09T08:11:26;16.50;92.10
32749;DHT22;19119;52.474;13.710;2023-05-09T08:13:52;16.50;91.50
32749;DHT22;19119;52.474;13.710;2023-05-09T08:16:18;16.40;91.50
32749;DHT22;19119;52.474;13.710;2023-05-09T08:18:44;16.40;91.40
32749;DHT22;19119;52.474;13.710;2023-05-09T08:21:10;16.50;91.40
32749;DHT22;19119;52.474;13.710;2023-05-09T08:23:35;16.40;91.50
32749;DHT22;19119;52.474;13.710;2023-05-09T08:26:01;16.40;91.50
32749;DHT22;19119;52.474;13.710;2023-05-09T08:28:27;16.40;91.00
32749;DHT22;19119;52.474;13.710;2023-05-09T08:30:55;16.30;91.40
32749;DHT22;19119;52.474;13.710;2023-05-09T08:33:22;16.30;91.00
32749;DHT22;19119;52.474;13.710;2023-05-09T08:35:51;16.80;92.00
32749;DHT22;19119;52.474;13.710;2023-05-09T08:38:17;17.20;92.20
32749;DHT22;19119;52.474;13.710;2023-05-09T08:40:43;17.40;91.40
32749;DHT22;19119;52.474;13.710;2023-05-09T08:43:09;17.80;92.50
32749;DHT22;19119;52.474;13.710;2023-05-09T08:45:46;18.00;92.20
32749;DHT22;19119;52.474;13.710;2023-05-09T08:48:16;18.10;91.30
32749;DHT22;19119;52.474;13.710;2023-05-09T08:50:42;17.40;90.60
32749;DHT22;19119;52.474;13.710;2023-05-09T08:53:08;17.70;90.80
32749;DHT22;19119;52.474;13.710;2023-05-09T08:55:34;17.60;90.50
32749;DHT22;19119;52.474;13.710;2023-05-09T08:58:00;17.90;91.30
32749;DHT22;19119;52.474;13.710;2023-05-09T09:00:26;18.20;91.30
32749;DHT22;19119;52.474;13.710;2023-05-09T09:02:54;18.00;90.90
32749;DHT22;19119;52.474;13.710;2023-05-09T09:05:22;17.80;90.90
32749;DHT22;19119;52.474;13.710;2023-05-09T09:07:48;17.80;91.00
32749;DHT22;19119;52.474;13.710;2023-05-09T09:10:15;17.80;91.10
32749;DHT22;19119;52.474;13.710;2023-05-09T09:12:41;17.80;90.80
32749;DHT22;19119;52.474;13.710;2023-05-09T09:15:12;17.90;90.90
32749;DHT22;19119;52.474;13.710;2023-05-09T09:17:41;17.80;90.50
32749;DHT22;19119;52.474;13.710;2023-05-09T09:20:10;17.90;90.40
32749;DHT22;19119;52.474;13.710;2023-05-09T09:22:37;17.90;90.20
32749;DHT22;19119;52.474;13.710;2023-05-09T09:25:06;18.00;90.10
32749;DHT22;19119;52.474;13.710;2023-05-09T09:27:31;17.90;89.60
32749;DHT22;19119;52.474;13.710;2023-05-09T09:30:10;18.30;90.50
32749;DHT22;19119;52.474;13.710;2023-05-09T09:32:36;18.20;89.90
32749;DHT22;19119;52.474;13.710;2023-05-09T09:35:05;18.10;88.50
32749;DHT22;19119;52.474;13.710;2023-05-09T09:37:34;17.90;87.10
32749;DHT22;19119;52.474;13.710;2023-05-09T09:40:00;18.40;89.10
32749;DHT22;19119;52.474;13.710;2023-05-09T09:42:25;18.70;87.30
32749;DHT22;19119;52.474;13.710;2023-05-09T09:45:17;18.60;87.20
32749;DHT22;19119;52.474;13.710;2023-05-09T09:47:45;18.60;86.60
32749;DHT22;19119;52.474;13.710;2023-05-09T09:50:13;18.60;86.30
32749;DHT22;19119;52.474;13.710;2023-05-09T09:52:52;18.40;85.90
32749;DHT22;19119;52.474;13.710;2023-05-09T09:55:22;18.70;85.70
32749;DHT22;19119;52.474;13.710;2023-05-09T09:57:48;18.90;88.20
32749;DHT22;19119;52.474;13.710;2023-05-09T10:00:16;19.00;85.70
32749;DHT22;19119;52.474;13.710;2023-05-09T10:02:46;19.20;86.60
32749;DHT22;19119;52.474;13.710;2023-05-09T10:05:21;19.50;88.50
32749;DHT22;19119;52.474;13.710;2023-05-09T10:07:54;19.40;87.60
32749;DHT22;19119;52.474;13.710;2023-05-09T10:10:21;19.60;88.30
32749;DHT22;19119;52.474;13.710;2023-05-09T10:12:49;19.40;86.40
32749;DHT22;19119;52.474;13.710;2023-05-09T10:15:16;19.60;87.20
32749;DHT22;19119;52.474;13.710;2023-05-09T10:17:44;19.30;86.30
32749;DHT22;19119;52.474;13.710;2023-05-09T10:20:11;19.20;86.40
32749;DHT22;19119;52.474;13.710;2023-05-09T10:22:38;19.30;88.90
32749;DHT22;19119;52.474;13.710;2023-05-09T10:25:22;19.30;86.40
32749;DHT22;19119;52.474;13.710;2023-05-09T10:27:53;19.50;88.40
32749;DHT22;19119;52.474;13.710;2023-05-09T10:30:30;19.80;88.50
32749;DHT22;19119;52.474;13.710;2023-05-09T10:33:08;19.70;86.90
32749;DHT22;19119;52.474;13.710;2023-05-09T10:35:39;20.00;87.10
32749;DHT22;19119;52.474;13.710;2023-05-09T10:38:06;19.90;86.20
32749;DHT22;19119;52.474;13.710;2023-05-09T10:40:33;19.50;86.30
32749;DHT22;19119;52.474;13.710;2023-05-09T10:42:59;19.40;86.80
32749;DHT22;19119;52.474;13.710;2023-05-09T10:45:24;19.70;88.30
32749;DHT22;19119;52.474;13.710;2023-05-09T10:47:51;20.10;88.40
32749;DHT22;19119;52.474;13.710;2023-05-09T10:50:18;20.10;87.30
32749;DHT22;19119;52.474;13.710;2023-05-09T10:55:51;20.20;86.60
32749;DHT22;19119;52.474;13.710;2023-05-09T10:58:31;20.50;88.20
32749;DHT22;19119;52.474;13.710;2023-05-09T11:01:02;20.20;87.20
32749;DHT22;19119;52.474;13.710;2023-05-09T11:04:22;20.60;87.60
32749;DHT22;19119;52.474;13.710;2023-05-09T11:06:51;20.70;87.20
32749;DHT22;19119;52.474;13.710;2023-05-09T11:09:49;21.00;85.30
32749;DHT22;19119;52.474;13.710;2023-05-09T11:12:18;21.10;85.50
32749;DHT22;19119;52.474;13.710;2023-05-09T11:14:47;21.30;85.40
32749;DHT22;19119;52.474;13.710;2023-05-09T11:17:36;21.30;85.40
32749;DHT22;19119;52.474;13.710;2023-05-09T11:20:04;21.10;83.50
32749;DHT22;19119;52.474;13.710;2023-05-09T11:22:43;21.10;84.40
32749;DHT22;19119;52.474;13.710;2023-05-09T11:25:12;21.20;85.20
32749;DHT22;19119;52.474;13.710;2023-05-09T11:27:43;21.30;85.80
32749;DHT22;19119;52.474;13.710;2023-05-09T11:30:14;21.10;85.40
32749;DHT22;19119;52.474;13.710;2023-05-09T11:32:50;21.00;85.80
32749;DHT22;19119;52.474;13.710;2023-05-09T11:35:18;21.00;87.20
32749;DHT22;19119;52.474;13.710;2023-05-09T11:40:26;20.90;84.70
32749;DHT22;19119;52.474;13.710;2023-05-09T11:42:53;21.10;87.10
32749;DHT22;19119;52.474;13.710;2023-05-09T11:45:21;20.90;84.20
32749;DHT22;19119;52.474;13.710;2023-05-09T11:47:48;20.70;84.30
32749;DHT22;19119;52.474;13.710;2023-05-09T11:50:15;20.60;86.00
32749;DHT22;19119;52.474;13.710;2023-05-09T11:52:41;20.60;88.00
32749;DHT22;19119;52.474;13.710;2023-05-09T11:55:09;20.90;86.00
32749;DHT22;19119;52.474;13.710;2023-05-09T11:57:48;21.10;84.30
32749;DHT22;19119;52.474;13.710;2023-05-09T12:00:15;21.40;85.10
32749;DHT22;19119;52.474;13.710;2023-05-09T12:02:43;21.20;83.50
32749;DHT22;19119;52.474;13.710;2023-05-09T12:05:14;21.30;83.20
32749;DHT22;19119;52.474;13.710;2023-05-09T12:07:40;21.00;83.60
32749;DHT22;19119;52.474;13.710;2023-05-09T12:12:34;21.30;84.60
32749;DHT22;19119;52.474;13.710;2023-05-09T12:15:06;21.20;82.80
32749;DHT22;19119;52.474;13.710;2023-05-09T12:17:33;21.20;82.40
32749;DHT22;19119;52.474;13.710;2023-05-09T12:19:59;21.00;82.10
32749;DHT22;19119;52.474;13.710;2023-05-09T12:22:26;21.30;83.80
32749;DHT22;19119;52.474;13.710;2023-05-09T12:24:52;21.20;84.80
32749;DHT22;19119;52.474;13.710;2023-05-09T12:27:19;21.40;84.30
32749;DHT22;19119;52.474;13.710;2023-05-09T12:29:45;21.40;83.20
32749;DHT22;19119;52.474;13.710;2023-05-09T12:32:13;21.30;84.30
32749;DHT22;19119;52.474;13.710;2023-05-09T12:34:40;21.30;84.20
32749;DHT22;19119;52.474;13.710;2023-05-09T12:37:17;21.40;83.70
32749;DHT22;19119;52.474;13.710;2023-05-09T12:40:00;21.20;83.40
32749;DHT22;19119;52.474;13.710;2023-05-09T12:42:27;21.00;84.40
32749;DHT22;19119;52.474;13.710;2023-05-09T12:44:53;21.20;85.20
32749;DHT22;19119;52.474;13.710;2023-05-09T12:47:19;21.20;85.10
32749;DHT22;19119;52.474;13.710;2023-05-09T12:49:48;21.10;83.90
32749;DHT22;19119;52.474;13.710;2023-05-09T12:52:18;21.20;83.40
32749;DHT22;19119;52.474;13.710;2023-05-09T12:54:45;21.30;84.50
32749;DHT22;19119;52.474;13.710;2023-05-09T12:57:21;21.20;83.70
32749;DHT22;19119;52.474;13.710;2023-05-09T12:59:47;21.10;84.70
32749;DHT22;19119;52.474;13.710;2023-05-09T13:02:13;21.10;84.70
32749;DHT22;19119;52.474;13.710;2023-05-09T13:04:38;21.30;84.90
32749;DHT22;19119;52.474;13.710;2023-05-09T13:07:07;21.80;82.90
32749;DHT22;19119;52.474;13.710;2023-05-09T13:09:34;21.50;83.90
32749;DHT22;19119;52.474;13.710;2023-05-09T13:12:02;21.80;84.60
32749;DHT22;19119;52.474;13.710;2023-05-09T13:14:34;21.90;82.90
32749;DHT22;19119;52.474;13.710;2023-05-09T13:16:59;22.00;84.10
32749;DHT22;19119;52.474;13.710;2023-05-09T13:19:25;22.20;84.70
32749;DHT22;19119;52.474;13.710;2023-05-09T13:21:53;21.60;84.20
32749;DHT22;19119;52.474;13.710;2023-05-09T13:24:19;21.40;84.90
32749;DHT22;19119;52.474;13.710;2023-05-09T13:26:45;21.40;84.60
32749;DHT22;19119;52.474;13.710;2023-05-09T13:29:10;21.50;84.50
32749;DHT22;19119;52.474;13.710;2023-05-09T13:31:36;21.30;82.50
32749;DHT22;19119;52.474;13.710;2023-05-09T13:34:01;21.30;82.30
32749;DHT22;19119;52.474;13.710;2023-05-09T13:36:27;21.40;82.40
32749;DHT22;19119;52.474;13.710;2023-05-09T13:38:52;21.30;80.60
32749;DHT22;19119;52.474;13.710;2023-05-09T13:41:18;21.20;81.10
32749;DHT22;19119;52.474;13.710;2023-05-09T13:43:48;21.10;81.70
32749;DHT22;19119;52.474;13.710;2023-05-09T13:46:13;21.30;82.80
32749;DHT22;19119;52.474;13.710;2023-05-09T13:48:39;21.70;82.30
32749;DHT22;19119;52.474;13.710;2023-05-09T13:51:06;21.30;82.00
32749;DHT22;19119;52.474;13.710;2023-05-09T13:53:32;21.30;82.40
32749;DHT22;19119;52.474;13.710;2023-05-09T13:55:57;21.40;81.60
32749;DHT22;19119;52.474;13.710;2023-05-09T13:58:23;21.60;81.50
32749;DHT22;19119;52.474;13.710;2023-05-09T14:00:49;21.60;82.30
32749;DHT22;19119;52.474;13.710;2023-05-09T14:03:14;21.90;83.30
32749;DHT22;19119;52.474;13.710;2023-05-09T14:05:40;21.50;83.30
32749;DHT22;19119;52.474;13.710;2023-05-09T14:08:07;21.50;82.90
32749;DHT22;19119;52.474;13.710;2023-05-09T14:10:32;21.70;83.20
32749;DHT22;19119;52.474;13.710;2023-05-09T14:12:58;22.00;82.00
32749;DHT22;19119;52.474;13.710;2023-05-09T14:15:23;21.90;81.90
32749;DHT22;19119;52.474;13.710;2023-05-09T14:17:49;22.00;84.50
32749;DHT22;19119;52.474;13.710;2023-05-09T14:20:15;21.70;81.80
32749;DHT22;19119;52.474;13.710;2023-05-09T14:22:40;21.50;81.30
32749;DHT22;19119;52.474;13.710;2023-05-09T14:25:06;21.60;82.80
32749;DHT22;19119;52.474;13.710;2023-05-09T14:27:32;21.70;82.00
32749;DHT22;19119;52.474;13.710;2023-05-09T14:30:01;21.80;81.00
32749;DHT22;19119;52.474;13.710;2023-05-09T14:32:27;21.60;81.10
32749;DHT22;19119;52.474;13.710;2023-05-09T14:34:52;21.40;79.40
32749;DHT22;19119;52.474;13.710;2023-05-09T14:37:18;21.50;80.70
32749;DHT22;19119;52.474;13.710;2023-05-09T14:39:43;21.60;80.80
32749;DHT22;19119;52.474;13.710;2023-05-09T14:42:09;21.50;82.10
32749;DHT22;19119;52.474;13.710;2023-05-09T14:44:39;21.20;80.50
32749;DHT22;19119;52.474;13.710;2023-05-09T14:47:06;21.20;80.80
32749;DHT22;19119;52.474;13.710;2023-05-09T14:49:32;21.30;81.50
32749;DHT22;19119;52.474;13.710;2023-05-09T14:51:58;21.40;80.80
32749;DHT22;19119;52.474;13.710;2023-05-09T14:54:23;21.50;82.00
32749;DHT22;19119;52.474;13.710;2023-05-09T14:56:49;21.50;82.30
32749;DHT22;19119;52.474;13.710;2023-05-09T14:59:15;21.70;82.10
32749;DHT22;19119;52.474;13.710;2023-05-09T15:01:40;21.50;81.80
32749;DHT22;19119;52.474;13.710;2023-05-09T15:04:06;21.40;81.10
32749;DHT22;19119;52.474;13.710;2023-05-09T15:06:32;21.30;81.30
32749;DHT22;19119;52.474;13.710;2023-05-09T15:08:58;21.30;82.70
32749;DHT22;19119;52.474;13.710;2023-05-09T15:11:24;21.20;82.40
32749;DHT22;19119;52.474;13.710;2023-05-09T15:13:51;21.10;82.10
32749;DHT22;19119;52.474;13.710;2023-05-09T15:16:17;20.90;82.40
32749;DHT22;19119;52.474;13.710;2023-05-09T15:18:43;20.90;82.30
32749;DHT22;19119;52.474;13.710;2023-05-09T15:21:10;20.90;82.90
32749;DHT22;19119;52.474;13.710;2023-05-09T15:23:36;21.10;83.10
32749;DHT22;19119;52.474;13.710;2023-05-09T15:26:04;21.00;81.70
32749;DHT22;19119;52.474;13.710;2023-05-09T15:28:33;21.20;82.00
32749;DHT22;19119;52.474;13.710;2023-05-09T15:30:58;21.40;84.10
32749;DHT22;19119;52.474;13.710;2023-05-09T15:33:24;21.30;81.70
32749;DHT22;19119;52.474;13.710;2023-05-09T15:35:52;21.20;80.60